Time;durP1;ratioP1;P1;durP2;ratioP2;P2;SDS_P1;SDS_P2;PMS_P1;PMS_P2;Temp;Humidity;BMP_temperature;BMP_pressure;BME280_temperature;BME280_humidity;BME280_pressure;Samples;Min_cycle;Max_cycle;Signal;HPM_P1;HPM_P2
2021/06/11 00:06:08;;;;;;;5.93;2.40;;;;;;;20.62;64.87;101568.97;2104563;23;20073;-88
2021/06/11 00:09:07;;;;;;;6.75;2.78;;;;;;;20.30;66.17;101570.94;4874876;29;20201;-88
2021/06/11 00:11:40;;;;;;;3.78;1.88;;;;;;;20.35;65.84;101575.44;4841658;29;20052;-87
2021/06/11 00:14:12;;;;;;;4.78;2.28;;;;;;;20.24;65.95;101565.97;4855223;29;20045;-87
2021/06/11 00:17:00;;;;;;;3.85;2.20;;;;;;;20.46;65.13;101568.97;4854098;29;20536;-85
2021/06/11 00:19:33;;;;;;;5.57;2.15;;;;;;;20.69;64.63;101560.78;4839192;29;20076;-88
2021/06/11 00:22:04;;;;;;;5.20;2.20;;;;;;;20.76;63.83;101564.56;4841992;29;20064;-91
2021/06/11 00:24:44;;;;;;;4.35;2.10;;;;;;;20.80;64.06;101568.25;4822922;29;20057;-86
2021/06/11 00:27:30;;;;;;;3.78;1.85;;;;;;;21.05;63.14;101560.50;4821266;29;20058;-89
2021/06/11 00:30:21;;;;;;;3.72;2.05;;;;;;;20.84;63.60;101571.97;4864537;29;20097;-88
2021/06/11 00:32:59;;;;;;;4.45;2.00;;;;;;;20.47;64.59;101567.00;4865506;29;20053;-88
2021/06/11 00:35:36;;;;;;;3.28;2.10;;;;;;;20.49;64.75;101562.66;4875060;29;20064;-86
2021/06/11 00:38:26;;;;;;;5.45;2.13;;;;;;;20.39;64.91;101565.97;4850978;29;20057;-87
2021/06/11 00:41:23;;;;;;;6.00;2.00;;;;;;;20.44;64.60;101559.28;4823628;29;20052;-87
2021/06/11 00:44:10;;;;;;;5.28;2.00;;;;;;;20.21;65.48;101558.28;4871737;29;20476;-88
2021/06/11 00:53:21;;;;;;;4.35;1.88;;;;;;;20.16;65.15;101562.16;4851495;29;20081;-87
2021/06/11 00:56:06;;;;;;;4.65;2.10;;;;;;;20.08;65.34;101566.69;4775937;29;20055;-90
2021/06/11 00:58:49;;;;;;;3.78;2.03;;;;;;;20.23;65.28;101567.09;4732859;29;20217;-86
2021/06/11 01:01:35;;;;;;;2.92;1.88;;;;;;;20.36;64.63;101571.47;4756587;30;20072;-85
2021/06/11 01:04:17;;;;;;;4.88;2.20;;;;;;;20.09;65.61;101562.72;4761093;29;20610;-89
2021/06/11 01:07:04;;;;;;;3.40;2.03;;;;;;;20.35;65.23;101553.88;4769694;30;20056;-86
2021/06/11 01:09:44;;;;;;;4.55;2.42;;;;;;;20.38;64.34;101558.75;4751110;30;20055;-87
2021/06/11 01:12:40;;;;;;;5.50;2.17;;;;;;;20.30;65.21;101553.31;4755956;30;20048;-89
2021/06/11 01:15:22;;;;;;;2.78;1.95;;;;;;;20.30;64.82;101556.13;4762463;29;20055;-85
2021/06/11 01:18:12;;;;;;;4.32;2.40;;;;;;;20.36;64.89;101555.50;4821175;29;20054;-86
2021/06/11 01:20:57;;;;;;;4.82;1.88;;;;;;;20.45;64.59;101552.53;4863996;29;20052;-89
2021/06/11 01:24:15;;;;;;;6.32;2.45;;;;;;;19.85;66.93;101551.66;4897720;29;20064;-88
2021/06/11 01:39:46;;;;;;;6.05;2.10;;;;;;;19.41;69.27;101549.94;4846836;28;20049;-87
2021/06/11 01:43:01;;;;;;;7.30;2.00;;;;;;;19.70;68.05;101551.59;4784821;30;20066;-85
2021/06/11 01:45:58;;;;;;;7.20;2.15;;;;;;;19.41;68.70;101544.34;4799646;29;20168;-87
2021/06/11 01:48:55;;;;;;;4.53;1.95;;;;;;;19.34;69.12;101546.91;4798730;29;20059;-86
2021/06/11 01:51:42;;;;;;;4.15;2.08;;;;;;;19.50;68.52;101547.00;4784645;29;20047;-89
2021/06/11 01:54:20;;;;;;;5.95;2.20;;;;;;;19.44;68.60;101543.63;4784432;29;20039;-87
2021/06/11 01:57:12;;;;;;;5.20;2.28;;;;;;;19.48;68.52;101550.13;4785361;29;20073;-89
2021/06/11 02:00:36;;;;;;;4.95;2.20;;;;;;;19.52;68.25;101537.09;4806471;29;20027;-87
2021/06/11 02:03:49;;;;;;;6.20;1.92;;;;;;;19.49;67.69;101537.00;4799540;30;20047;-89
2021/06/11 02:06:24;;;;;;;5.25;2.05;;;;;;;19.37;68.37;101531.44;4782633;30;20059;-88
2021/06/11 02:09:11;;;;;;;;;;;;;;;19.50;67.69;101539.44;4796857;30;20059;-88
2021/06/11 02:12:04;;;;;;;5.88;2.08;;;;;;;19.26;68.66;101539.47;4769096;29;19925;-88
2021/06/11 02:14:49;;;;;;;4.50;2.00;;;;;;;19.65;67.09;101532.28;4802391;29;20064;-91
2021/06/11 02:17:40;;;;;;;6.43;2.28;;;;;;;19.59;67.45;101530.91;4794956;29;20065;-90
2021/06/11 02:20:52;;;;;;;5.20;2.13;;;;;;;20.07;66.30;101531.50;4812109;29;20070;-93
2021/06/11 02:23:36;;;;;;;5.82;2.25;;;;;;;20.03;65.56;101530.59;4878020;29;20108;-94
2021/06/11 02:26:23;;;;;;;5.47;2.15;;;;;;;20.31;64.74;101532.56;4785314;29;20055;-88
2021/06/11 02:29:30;;;;;;;5.78;2.03;;;;;;;20.01;65.56;101526.53;4751650;30;20067;-83
2021/06/11 02:32:33;;;;;;;7.25;2.40;;;;;;;20.03;65.53;101530.59;4836241;29;20056;-83
2021/06/11 02:35:59;;;;;;;4.95;2.30;;;;;;;19.62;66.61;101528.22;4816962;29;20149;-87
2021/06/11 02:39:06;;;;;;;6.93;2.17;;;;;;;19.55;66.89;101521.59;4846219;29;20047;-87
2021/06/11 02:42:25;;;;;;;4.72;2.10;;;;;;;19.37;67.85;101523.06;4725418;30;20052;-88
2021/06/11 02:45:44;;;;;;;6.70;2.10;;;;;;;19.47;67.94;101519.75;4708468;30;20108;-87
2021/06/11 02:48:44;;;;;;;5.38;1.95;;;;;;;19.45;67.45;101519.28;4698136;30;20378;-88
2021/06/11 02:51:52;;;;;;;5.38;2.10;;;;;;;19.67;66.88;101525.16;4710173;30;20068;-89
2021/06/11 02:54:34;;;;;;;4.13;2.13;;;;;;;19.14;68.69;101519.94;4747968;30;20055;-86
2021/06/11 02:58:03;;;;;;;4.82;2.00;;;;;;;19.43;67.90;101516.84;4755964;30;20051;-90
2021/06/11 03:00:55;;;;;;;4.95;1.88;;;;;;;19.78;66.96;101515.09;4765900;30;20062;-88
2021/06/11 03:03:41;;;;;;;5.20;2.13;;;;;;;19.98;65.70;101513.25;4779965;30;20070;-87
2021/06/11 03:06:33;;;;;;;4.35;1.90;;;;;;;19.92;65.76;101517.50;4743567;30;20056;-88
2021/06/11 03:09:22;;;;;;;6.65;2.17;;;;;;;20.08;65.10;101510.75;4768071;29;20076;-85
2021/06/11 03:12:11;;;;;;;5.43;2.50;;;;;;;20.21;64.46;101513.53;4772318;29;20052;-88
2021/06/11 03:14:54;;;;;;;6.72;2.42;;;;;;;19.74;66.13;101503.00;4769050;30;20067;-84
2021/06/11 03:17:31;;;;;;;5.07;2.17;;;;;;;19.61;67.08;101509.00;4789140;29;20055;-83
2021/06/11 03:20:18;;;;;;;8.30;2.60;;;;;;;19.81;66.65;101502.38;4861710;29;20050;-82
2021/06/11 03:23:27;;;;;;;5.90;2.30;;;;;;;20.37;64.08;101503.97;4880174;29;20065;-85
2021/06/11 03:26:12;;;;;;;6.03;2.15;;;;;;;19.91;65.87;101497.09;4796679;29;20506;-92
2021/06/11 03:29:06;;;;;;;4.95;2.55;;;;;;;19.98;65.65;101505.69;4873766;29;20066;-83
2021/06/11 03:31:48;;;;;;;4.88;2.30;;;;;;;19.53;67.90;101507.97;4799604;29;20414;-85
2021/06/11 03:34:28;;;;;;;7.72;2.28;;;;;;;19.58;67.75;101507.72;4801360;29;20070;-87
2021/06/11 03:37:04;;;;;;;4.82;2.42;;;;;;;19.63;67.76;101515.84;4803603;29;20059;-92
2021/06/11 03:40:08;;;;;;;6.90;2.58;;;;;;;19.16;69.55;101509.19;4821134;29;20059;-87
2021/06/11 03:59:16;;;;;;;6.88;3.17;;;;;;;18.99;71.96;101520.63;4839389;29;20497;-89
2021/06/11 04:01:56;;;;;;;6.47;3.42;;;;;;;18.97;72.00;101523.78;4836504;29;20062;-85
2021/06/11 04:08:07;;;;;;;7.30;3.40;;;;;;;18.99;72.47;101524.25;4890642;29;20060;-89
2021/06/11 04:11:31;;;;;;;;;;;;;;;;;;;;;
2021/06/11 04:25:11;;;;;;;6.32;3.30;;;;;;;19.36;71.26;101521.41;4789405;23;20492;-81
2021/06/11 04:34:37;;;;;;;5.75;2.78;;;;;;;19.22;71.26;101526.53;4957022;29;20054;-78
2021/06/11 04:40:35;;;;;;;6.93;3.30;;;;;;;18.96;72.26;101533.31;3023667;23;20060;-75
2021/06/11 04:43:06;;;;;;;5.75;2.72;;;;;;;18.49;74.19;101540.50;5010200;23;20415;-81
2021/06/11 04:45:58;;;;;;;5.05;2.85;;;;;;;18.56;73.84;101526.81;4830720;23;20418;-85
2021/06/11 04:48:29;;;;;;;5.38;3.13;;;;;;;18.35;74.30;101541.94;4883503;29;20517;-80
2021/06/11 04:51:00;;;;;;;7.60;2.65;;;;;;;18.49;73.83;101536.91;4807370;29;20058;-81
2021/06/11 04:53:28;;;;;;;6.28;3.05;;;;;;;18.68;72.97;101534.34;4791804;29;20050;-80
2021/06/11 04:55:58;;;;;;;8.98;3.00;;;;;;;18.67;73.19;101532.75;4823391;23;20052;-80
2021/06/11 05:01:40;;;;;;;9.27;3.30;;;;;;;18.45;74.55;101535.94;4821897;29;20045;-79
2021/06/11 05:04:13;;;;;;;5.57;3.40;;;;;;;18.73;73.85;101540.53;4795525;29;20054;-82
2021/06/11 05:06:42;;;;;;;7.57;3.05;;;;;;;18.89;73.02;101540.66;4794849;29;20522;-79
2021/06/11 05:09:10;;;;;;;8.52;3.53;;;;;;;18.89;73.30;101540.66;4794849;29;20383;-76
2021/06/11 05:11:38;;;;;;;7.40;4.15;;;;;;;18.86;73.23;101538.56;4778375;29;20058;-78
2021/06/11 05:14:06;;;;;;;6.95;3.92;;;;;;;18.75;73.47;101546.59;4783688;23;20062;-81
2021/06/11 05:16:33;;;;;;;7.57;3.60;;;;;;;18.84;73.25;101541.72;4806417;29;20058;-78
2021/06/11 05:19:04;;;;;;;7.82;3.83;;;;;;;18.84;73.50;101552.88;4778836;29;20058;-79
2021/06/11 05:58:24;;;;;;;6.50;3.47;;;;;;;19.53;69.74;101583.44;4807847;29;20039;-89
2021/06/11 06:01:41;;;;;;;6.35;3.78;;;;;;;19.55;69.62;101580.28;4816695;29;20066;-93
2021/06/11 06:05:25;;;;;;;8.32;3.72;;;;;;;19.59;69.91;101582.03;4808282;29;20063;-90
2021/06/11 06:08:39;;;;;;;5.78;3.47;;;;;;;19.69;69.13;101586.28;4874175;29;20604;-89
2021/06/11 06:12:28;;;;;;;10.43;3.83;;;;;;;19.57;69.73;101589.13;4765273;30;20037;-90
2021/06/11 06:15:29;;;;;;;10.80;3.65;;;;;;;20.00;68.32;101584.44;4771379;29;20057;-90
2021/06/11 06:43:32;;;;;;;8.93;3.60;;;;;;;18.92;71.49;101602.19;5176424;23;21337;31
2021/06/11 07:46:53;;;;;;;9.32;2.70;;;;;;;22.62;55.79;101590.38;568367;23;20312;31
2021/06/11 08:06:43;;;;;;;11.95;2.60;;;;;;;22.66;55.24;101598.84;3949657;23;20339;31
2021/06/11 08:27:57;;;;;;;8.80;2.05;;;;;;;23.48;53.69;101607.47;509315;27;20480;-88
2021/06/11 08:30:45;;;;;;;11.77;2.65;;;;;;;23.04;53.56;101613.59;4841350;29;20057;-87
2021/06/11 08:33:18;;;;;;;6.03;2.20;;;;;;;22.13;56.26;101614.63;4841367;29;20053;-88
2021/06/11 08:36:13;;;;;;;7.40;2.20;;;;;;;22.72;55.81;101617.00;4874479;29;20057;-91
2021/06/11 08:39:19;;;;;;;10.95;2.50;;;;;;;22.19;56.36;101618.78;4878969;29;20047;-87
2021/06/11 08:41:56;;;;;;;12.40;2.35;;;;;;;22.19;55.63;101619.56;4825389;29;20053;-87
2021/06/11 08:44:42;;;;;;;10.90;2.38;;;;;;;22.01;56.31;101615.59;4855569;29;20179;-88
2021/06/11 08:48:06;;;;;;;10.45;2.22;;;;;;;21.85;57.70;101633.66;4845103;29;20057;-84
2021/06/11 08:52:39;;;;;;;9.20;2.90;;;;;;;21.76;57.41;101621.84;4812157;29;20034;-83
2021/06/11 08:55:46;;;;;;;13.10;2.60;;;;;;;22.27;59.11;101614.91;4878353;23;20157;-82
2021/06/11 08:58:14;;;;;;;13.32;2.78;;;;;;;23.35;55.75;101615.31;4773087;29;20392;-81
2021/06/11 09:00:42;;;;;;;10.75;2.42;;;;;;;23.80;51.06;101612.34;4807375;29;20059;-79
2021/06/11 09:03:11;;;;;;;14.02;2.42;;;;;;;23.63;52.52;101606.47;4867929;29;20049;-80
2021/06/11 09:05:42;;;;;;;11.40;2.60;;;;;;;23.66;51.56;101611.38;4789417;29;20059;-83
2021/06/11 09:08:20;;;;;;;8.25;2.20;;;;;;;23.31;52.57;101608.81;4821181;29;20062;-80
2021/06/11 09:10:54;;;;;;;7.88;2.63;;;;;;;22.79;54.67;101606.72;4813786;29;20058;-82
2021/06/11 09:13:28;;;;;;;6.03;2.03;;;;;;;22.89;56.38;101605.28;4821399;29;20054;-82
2021/06/11 09:16:22;;;;;;;14.77;2.75;;;;;;;23.02;53.47;101612.31;4831136;29;20055;-76
2021/06/11 09:19:02;;;;;;;8.88;2.40;;;;;;;23.47;54.63;101597.44;4805210;29;20495;-82
2021/06/11 09:21:43;;;;;;;7.25;2.25;;;;;;;23.42;51.40;101595.72;4835552;29;20069;-76
2021/06/11 09:24:32;;;;;;;5.72;2.67;;;;;;;23.04;53.66;101602.34;4819961;29;20537;-82
2021/06/11 09:27:08;;;;;;;5.32;2.30;;;;;;;22.89;53.68;101600.47;4876536;29;20066;-85
2021/06/11 09:29:44;;;;;;;9.05;2.33;;;;;;;23.29;51.34;101597.94;4819239;29;20517;-84
2021/06/11 09:32:23;;;;;;;7.22;2.05;;;;;;;23.60;54.62;101591.19;4807083;29;20069;-81
2021/06/11 09:34:57;;;;;;;9.73;2.28;;;;;;;23.85;53.04;101597.94;4878345;29;20509;-83
2021/06/11 09:37:33;;;;;;;4.70;1.63;;;;;;;24.19;53.59;101598.81;4819074;29;20069;-79
2021/06/11 09:40:25;;;;;;;8.73;2.50;;;;;;;23.19;51.41;101597.75;4864646;29;20490;-75
2021/06/11 09:43:01;;;;;;;9.00;2.70;;;;;;;23.35;52.55;101593.63;4793000;29;20050;-77
2021/06/11 09:45:38;;;;;;;6.13;2.13;;;;;;;23.89;54.93;101595.19;4822865;29;20050;-78
2021/06/11 09:48:27;;;;;;;6.00;2.20;;;;;;;24.18;54.15;101592.38;4810583;29;20537;-80
2021/06/11 09:50:56;;;;;;;6.38;2.45;;;;;;;24.01;52.37;101592.16;4822371;29;20049;-76
2021/06/11 09:53:29;;;;;;;8.35;3.03;;;;;;;23.66;52.38;101583.25;4871025;29;20065;-85
2021/06/11 10:39:24;;;;;;;5.72;2.35;;;;;;;23.57;53.87;101577.06;4990183;23;20066;-80
2021/06/11 10:42:08;;;;;;;7.15;2.78;;;;;;;23.77;52.77;101567.28;4877887;28;20704;-82
2021/06/11 10:45:14;;;;;;;;;;;;;;;;;;;;;
2021/06/11 10:47:53;;;;;;;7.43;2.53;;;;;;;23.62;53.37;101569.13;4829665;29;20062;-79
2021/06/11 10:50:34;;;;;;;6.93;2.78;;;;;;;23.76;53.59;101576.94;4827564;29;20066;-84
2021/06/11 10:56:33;;;;;;;3.65;2.05;;;;;;;23.88;53.47;101563.44;4904073;23;20057;-78
2021/06/11 11:16:22;;;;;;;13.40;2.60;;;;;;;24.23;50.57;101549.78;1906307;23;20399;-78
2021/06/11 11:34:06;;;;;;;7.20;2.60;;;;;;;24.92;49.36;101535.97;4892894;29;20417;-83
2021/06/11 11:36:44;;;;;;;6.90;2.60;;;;;;;24.55;50.07;101532.41;4943482;23;20055;-82
2021/06/11 11:39:28;;;;;;;6.13;2.72;;;;;;;24.68;49.57;101539.38;4830901;23;20086;-77
2021/06/11 11:48:24;;;;;;;6.03;2.50;;;;;;;24.71;49.39;101538.59;4762725;30;20412;-84
2021/06/11 11:50:59;;;;;;;7.85;3.58;;;;;;;24.57;49.84;101532.81;4742577;30;20071;-79
2021/06/11 11:53:32;;;;;;;8.20;2.95;;;;;;;24.67;49.42;101535.72;4735827;30;20056;-78
2021/06/11 11:56:11;;;;;;;8.85;2.80;;;;;;;24.60;49.19;101532.84;4725885;30;20064;-82
2021/06/11 11:58:39;;;;;;;7.43;2.40;;;;;;;24.46;49.83;101521.47;4711466;30;20473;-83
2021/06/11 12:01:40;;;;;;;12.88;3.42;;;;;;;24.56;49.01;101539.66;4741779;30;20096;-79
2021/06/11 12:04:23;;;;;;;7.40;2.47;;;;;;;24.81;48.20;101527.44;4740777;30;20064;-83
2021/06/11 12:06:52;;;;;;;10.30;2.67;;;;;;;24.92;48.49;101533.97;4747043;30;20059;-83
2021/06/11 12:09:20;;;;;;;6.32;2.60;;;;;;;25.08;48.03;101534.50;4722671;30;20056;-82
2021/06/11 12:11:57;;;;;;;6.78;2.60;;;;;;;24.71;49.08;101527.34;4736484;30;20064;-83
2021/06/11 12:14:30;;;;;;;5.68;2.50;;;;;;;24.85;48.58;101531.09;4750008;30;20502;-81
2021/06/11 12:16:58;;;;;;;5.95;2.47;;;;;;;24.89;48.55;101517.84;4708968;30;20565;-79
2021/06/11 12:20:04;;;;;;;5.35;2.20;;;;;;;25.11;47.74;101511.16;4714070;30;20522;-85
2021/06/11 12:26:54;;;;;;;6.50;2.53;;;;;;;25.07;47.44;101513.13;4753465;30;20204;-79
2021/06/11 12:29:21;;;;;;;7.05;2.47;;;;;;;24.76;48.68;101527.00;4817194;29;20444;-83
2021/06/11 12:31:51;;;;;;;7.47;2.58;;;;;;;24.94;48.46;101519.47;4798114;29;20059;-82
2021/06/11 12:34:23;;;;;;;6.30;2.38;;;;;;;25.05;47.54;101514.75;4815760;29;20055;-82
2021/06/11 12:37:10;;;;;;;5.18;2.22;;;;;;;24.98;47.37;101506.22;4782272;29;20428;-77
2021/06/11 12:39:38;;;;;;;8.68;2.17;;;;;;;24.92;48.43;101524.69;4788751;29;20501;-83
2021/06/11 12:42:18;;;;;;;8.40;2.40;;;;;;;24.99;47.29;101513.47;4767047;30;20071;-78
2021/06/11 12:45:10;;;;;;;4.07;2.10;;;;;;;25.36;46.04;101503.69;4794255;29;20064;-81
2021/06/11 12:52:06;;;;;;;7.07;2.03;;;;;;;25.91;43.92;101501.50;4743275;30;20103;-80
2021/06/11 12:55:42;;;;;;;10.10;1.90;;;;;;;25.52;44.13;101500.53;4724219;30;20053;-85
2021/06/11 12:58:20;;;;;;;5.13;1.80;;;;;;;26.00;42.17;101498.28;4704092;30;20064;-78
2021/06/11 13:01:30;;;;;;;5.88;2.22;;;;;;;26.41;41.25;101491.16;4717601;30;20052;-83
2021/06/11 13:04:23;;;;;;;6.07;2.03;;;;;;;25.77;42.49;101495.00;4689644;30;20173;-82
2021/06/11 13:08:00;;;;;;;3.75;1.50;;;;;;;26.39;42.05;101490.72;4658730;30;20066;-86
2021/06/11 13:10:28;;;;;;;5.43;1.63;;;;;;;26.91;41.76;101492.78;4632953;30;20074;-79
2021/06/11 13:12:56;;;;;;;6.25;1.80;;;;;;;26.71;41.89;101491.56;4652135;30;20063;-88
2021/06/11 13:15:27;;;;;;;7.15;1.77;;;;;;;26.58;42.28;101496.00;4665568;30;20062;-80
2021/06/11 13:18:03;;;;;;;4.13;1.60;;;;;;;26.77;41.28;101492.78;4672089;30;20054;-87
2021/06/11 13:21:10;;;;;;;8.02;1.80;;;;;;;26.16;42.38;101487.47;4714992;30;20494;-86
2021/06/11 13:24:15;;;;;;;5.78;1.63;;;;;;;26.16;42.17;101498.75;4704992;30;20608;-86
2021/06/11 13:28:06;;;;;;;7.57;1.70;;;;;;;25.64;44.84;101493.72;4702834;30;20056;-80
2021/06/11 13:31:06;;;;;;;5.25;1.98;;;;;;;25.74;45.01;101485.31;4748149;30;20079;-84
2021/06/11 13:33:36;;;;;;;3.78;2.00;;;;;;;25.74;45.45;101484.50;4747885;30;20064;-85
2021/06/11 13:36:25;;;;;;;5.95;2.17;;;;;;;25.97;45.08;101487.78;4772985;30;20055;-88
2021/06/11 13:38:52;;;;;;;7.33;1.97;;;;;;;25.70;46.03;101492.94;4782170;29;20054;-84
2021/06/11 13:41:57;;;;;;;5.15;1.80;;;;;;;25.59;46.14;101478.78;4790943;29;20063;-89
2021/06/11 13:44:50;;;;;;;4.65;2.10;;;;;;;25.97;45.12;101476.50;4770139;29;20156;-80
2021/06/11 14:15:51;;;;;;;;;;;;;;;;;;;;;
2021/06/11 14:24:48;;;;;;;1.98;1.10;;;;;;;25.69;45.57;101470.75;4998582;23;20321;-77
2021/06/11 14:27:48;;;;;;;;;;;;;;;;;;;;;
2021/06/11 14:44:03;;;;;;;2.95;1.13;;;;;;;25.89;45.63;101470.03;4920237;23;20045;-78
2021/06/11 15:03:33;;;;;;;4.18;1.23;;;;;;;26.21;45.45;101465.28;5108068;23;20067;-77
2021/06/11 15:12:32;;;;;;;2.67;1.15;;;;;;;26.01;45.31;101458.38;4820368;29;20054;-80
2021/06/11 15:15:09;;;;;;;4.63;1.05;;;;;;;25.78;46.01;101459.91;4877732;29;20053;-83
2021/06/11 15:27:36;;;;;;;2.60;1.00;;;;;;;26.16;45.23;101448.75;3374783;23;20140;-83
2021/06/11 15:30:38;;;;;;;2.95;1.00;;;;;;;25.67;46.42;101447.78;4853223;29;20058;-82
2021/06/11 15:33:38;;;;;;;2.55;1.02;;;;;;;25.53;46.55;101455.00;4839044;29;20061;-85
2021/06/11 15:36:09;;;;;;;4.13;1.00;;;;;;;25.45;47.39;101444.88;4836688;29;20046;-82
2021/06/11 15:38:59;;;;;;;4.45;1.10;;;;;;;25.48;47.44;101451.75;4836997;29;20061;-86
2021/06/11 15:41:45;;;;;;;2.78;0.90;;;;;;;25.40;47.15;101447.28;4823023;29;20062;-84
2021/06/11 15:44:50;;;;;;;3.90;0.70;;;;;;;25.48;46.71;101438.47;4812888;29;20058;-81
2021/06/11 15:47:38;;;;;;;1.83;0.90;;;;;;;25.96;46.00;101438.19;4839458;29;20054;-80
2021/06/11 15:50:26;;;;;;;2.65;0.73;;;;;;;25.68;45.78;101438.13;4836459;29;20059;-82
2021/06/11 15:53:24;;;;;;;3.35;1.05;;;;;;;25.82;45.98;101444.59;4827400;29;20064;-84
2021/06/11 15:55:56;;;;;;;2.78;1.30;;;;;;;26.19;45.32;101450.75;4818067;29;20058;-82
2021/06/11 15:58:37;;;;;;;1.98;0.93;;;;;;;26.20;45.25;101445.91;4837076;29;20058;-85
2021/06/11 16:01:22;;;;;;;3.08;1.10;;;;;;;26.15;44.84;101449.16;4857233;29;20050;-84
2021/06/11 16:03:55;;;;;;;2.75;1.00;;;;;;;25.89;44.64;101453.09;4914484;23;20173;-86
2021/06/11 16:06:57;;;;;;;1.92;1.10;;;;;;;25.78;45.39;101452.25;4806374;29;20058;-87
2021/06/11 16:09:28;;;;;;;4.03;1.20;;;;;;;25.85;44.88;101441.00;4880158;29;20057;-82
2021/06/11 16:12:03;;;;;;;2.45;1.20;;;;;;;26.00;44.52;101434.16;4840123;29;20497;-82
2021/06/11 16:14:43;;;;;;;3.20;1.33;;;;;;;26.36;43.83;101435.81;4808592;29;20051;-80
2021/06/11 16:17:19;;;;;;;3.53;1.30;;;;;;;26.40;43.88;101433.81;4827497;29;20064;-82
2021/06/11 16:20:04;;;;;;;5.90;1.40;;;;;;;26.63;42.56;101425.75;4839692;29;20059;-82
2021/06/11 16:22:38;;;;;;;3.28;1.27;;;;;;;27.08;41.29;101426.06;4736831;29;20133;-78
2021/06/11 16:25:10;;;;;;;2.35;1.20;;;;;;;26.52;42.34;101424.94;4779421;29;20045;-82
2021/06/11 16:48:32;;;;;;;;;;;;;;;;;;;;;
2021/06/11 16:51:23;;;;;;;3.75;1.35;;;;;;;26.06;43.36;101409.19;4917386;29;20059;-80
2021/06/11 16:53:50;;;;;;;6.00;1.27;;;;;;;26.24;43.22;101401.56;4906079;29;20364;-80
2021/06/11 16:56:24;;;;;;;4.07;1.35;;;;;;;26.25;42.96;101412.44;4938872;29;20060;-83
2021/06/11 16:58:58;;;;;;;2.45;1.50;;;;;;;25.87;43.47;101409.53;4924315;29;20052;-83
2021/06/11 17:01:27;;;;;;;6.63;1.75;;;;;;;25.61;43.69;101402.22;4928097;29;20508;-81
2021/06/11 17:03:56;;;;;;;4.05;1.48;;;;;;;25.51;43.97;101411.44;4924738;29;20059;-78
2021/06/11 17:06:28;;;;;;;5.40;1.70;;;;;;;25.87;43.48;101406.72;4929621;29;20052;-83
2021/06/11 17:08:55;;;;;;;4.87;1.70;;;;;;;25.78;43.66;101407.09;4925634;29;20056;-79
2021/06/11 17:11:23;;;;;;;5.68;1.60;;;;;;;25.85;44.06;101409.94;4923129;29;20054;-82
2021/06/11 17:13:50;;;;;;;4.60;1.70;;;;;;;26.31;43.04;101410.03;4894992;29;20048;-77
2021/06/11 17:16:18;;;;;;;3.13;1.63;;;;;;;26.13;43.05;101403.56;4909633;29;20059;-80
2021/06/11 17:18:46;;;;;;;2.42;1.30;;;;;;;26.23;43.01;101403.56;4908819;29;20047;-78
2021/06/11 17:21:14;;;;;;;5.13;1.80;;;;;;;26.18;43.82;101397.50;4909043;29;20060;-77
2021/06/11 17:23:47;;;;;;;4.75;1.67;;;;;;;26.05;43.64;101410.38;4910400;29;20051;-79
2021/06/11 17:26:19;;;;;;;4.53;1.70;;;;;;;25.68;44.64;101407.09;4896873;29;20056;-77
2021/06/11 17:28:47;;;;;;;2.50;1.35;;;;;;;25.72;44.92;101408.69;4927048;29;20048;-77
2021/06/11 17:43:19;;;;;;;4.80;1.75;;;;;;;25.67;45.21;101411.91;5024210;23;20061;-79
2021/06/11 17:49:05;;;;;;;3.80;1.90;;;;;;;26.01;45.00;101403.91;4833055;29;20459;-83
2021/06/11 18:02:16;;;;;;;4.43;2.22;;;;;;;25.64;45.87;101409.88;4831509;23;20060;-80
2021/06/11 18:05:00;;;;;;;6.30;1.98;;;;;;;25.59;45.97;101413.09;5216984;23;20290;31
2021/06/11 18:17:30;;;;;;;4.40;2.78;;;;;;;25.32;47.61;101426.66;3230255;27;20070;-80
2021/06/11 18:29:55;;;;;;;8.88;3.47;;;;;;;25.29;47.25;101435.13;5074573;23;20056;-78
2021/06/11 18:39:43;;;;;;;6.78;3.30;;;;;;;25.53;46.37;101429.59;4607951;27;20075;-82
2021/06/11 18:49:51;;;;;;;5.95;4.20;;;;;;;25.35;47.28;101439.19;4680507;23;20069;-80
2021/06/11 18:52:19;;;;;;;13.43;4.88;;;;;;;25.28;47.72;101444.78;4836321;29;20061;-83
2021/06/11 18:54:47;;;;;;;7.37;4.97;;;;;;;24.97;48.15;101440.56;4811369;29;20052;-82
2021/06/11 18:57:25;;;;;;;7.70;4.55;;;;;;;24.98;48.65;101435.75;4841444;29;20154;-78
2021/06/11 19:00:13;;;;;;;7.30;5.10;;;;;;;25.06;48.36;101431.75;4838689;29;20054;-80
2021/06/11 19:02:43;;;;;;;9.35;5.70;;;;;;;25.04;48.80;101437.81;4849695;29;20054;-81
2021/06/11 19:05:53;;;;;;;10.02;5.95;;;;;;;25.02;48.58;101426.09;4814726;29;20065;-84
2021/06/11 19:12:43;;;;;;;9.43;7.53;;;;;;;24.62;49.74;101439.50;2520697;23;20077;-82
2021/06/11 19:15:28;;;;;;;9.38;7.20;;;;;;;24.63;49.90;101441.13;4828059;29;20058;-84
2021/06/11 19:17:56;;;;;;;9.52;7.55;;;;;;;24.75;49.50;101435.19;4826305;29;20064;-81
2021/06/11 19:20:40;;;;;;;10.32;8.68;;;;;;;25.06;48.85;101443.03;4810166;29;20425;-85
2021/06/11 19:23:12;;;;;;;12.15;9.07;;;;;;;24.72;48.61;101442.44;4833547;29;20060;-83
2021/06/11 19:33:06;;;;;;;14.05;10.98;;;;;;;25.03;47.62;101450.28;4095408;27;20066;-81
2021/06/11 19:36:45;;;;;;;14.80;10.70;;;;;;;24.67;48.28;101461.69;4776861;30;20060;-85
2021/06/11 19:43:43;;;;;;;15.25;12.00;;;;;;;24.72;48.58;101469.81;4733105;30;20244;-83
2021/06/11 19:46:45;;;;;;;14.70;12.55;;;;;;;24.36;49.41;101468.66;4713940;30;20049;-80
2021/06/11 19:49:50;;;;;;;14.77;11.57;;;;;;;24.73;48.91;101463.78;4717670;30;20045;-79
2021/06/11 19:53:12;;;;;;;14.55;11.93;;;;;;;24.85;48.66;101462.63;4694361;30;20064;-85
2021/06/11 19:55:51;;;;;;;16.02;11.55;;;;;;;24.45;49.36;101474.78;4724517;30;20065;-79
2021/06/11 20:05:12;;;;;;;14.80;11.10;;;;;;;24.84;48.80;101477.94;4334754;23;20124;-85
2021/06/11 20:07:42;;;;;;;13.30;11.27;;;;;;;24.73;48.67;101486.31;4831703;29;20050;-81
2021/06/11 20:13:28;;;;;;;12.52;10.30;;;;;;;24.83;48.57;101490.41;1681433;23;20094;-75
2021/06/11 20:15:56;;;;;;;11.50;10.00;;;;;;;24.82;48.91;101489.59;4858618;24;20066;-80
2021/06/11 20:18:29;;;;;;;11.25;9.20;;;;;;;24.83;48.51;101490.41;5070810;24;20057;-78
2021/06/11 20:21:01;;;;;;;14.45;7.55;;;;;;;24.78;48.18;101493.59;5321894;23;20030;-80
2021/06/11 20:27:07;;;;;;;8.35;6.60;;;;;;;24.55;48.89;101495.78;4752170;30;20056;-79
2021/06/11 20:29:37;;;;;;;13.10;7.32;;;;;;;24.51;49.00;101499.38;4754310;29;20424;-79
2021/06/11 20:32:36;;;;;;;8.68;6.18;;;;;;;24.50;49.52;101505.41;4800632;29;20056;-74
2021/06/11 20:35:17;;;;;;;8.68;6.40;;;;;;;24.32;50.23;101513.69;4755117;30;20556;-77
2021/06/11 20:37:48;;;;;;;8.73;6.15;;;;;;;24.41;50.44;101519.00;4739905;30;20048;-77
2021/06/11 20:40:20;;;;;;;8.00;5.80;;;;;;;24.31;51.05;101520.53;4744164;29;20059;-79
2021/06/11 20:42:49;;;;;;;8.10;6.07;;;;;;;24.02;52.27;101518.59;4752463;29;20060;-80
2021/06/11 20:45:19;;;;;;;8.40;5.78;;;;;;;24.11;52.26;101527.53;4715412;30;20138;-79
2021/06/11 20:47:46;;;;;;;18.05;6.97;;;;;;;24.21;52.60;101532.50;4767885;29;20524;-76
2021/06/11 20:50:19;;;;;;;11.38;6.25;;;;;;;23.93;53.21;101532.13;4727963;30;20049;-84
2021/06/11 20:52:57;;;;;;;10.07;6.00;;;;;;;24.35;52.38;101534.63;4758869;29;20083;-76
2021/06/11 20:58:21;;;;;;;11.77;6.90;;;;;;;23.86;53.84;101537.69;4923485;29;20056;-78
2021/06/11 21:09:54;;;;;;;12.82;7.40;;;;;;;23.61;55.69;101552.59;4856568;23;20458;-76
2021/06/11 21:40:27;;;;;;;3.60;2.47;;;;;;;22.62;64.70;101579.13;4953015;23;20066;-79
2021/06/11 21:49:52;;;;;;;5.20;2.70;;;;;;;22.69;65.07;101584.06;4886127;23;20074;-81
2021/06/11 21:59:57;;;;;;;4.72;2.70;;;;;;;22.75;65.32;101588.19;507263;27;21042;-83
2021/06/11 22:38:00;;;;;;;4.80;2.55;;;;;;;22.54;66.35;101602.66;5049971;23;20065;-82
2021/06/11 22:40:32;;;;;;;3.88;2.20;;;;;;;22.79;65.06;101609.53;4842407;29;20092;-76
2021/06/11 22:58:56;;;;;;;7.25;3.90;;;;;;;22.28;65.65;101599.72;4839439;29;20066;-78
2021/06/11 23:02:00;;;;;;;7.57;4.68;;;;;;;22.06;66.53;101594.84;4785953;29;20062;-78
2021/06/11 23:07:59;;;;;;;8.40;5.60;;;;;;;21.92;67.17;101592.56;2322915;23;20050;-83
2021/06/11 23:11:06;;;;;;;12.38;6.65;;;;;;;22.03;66.97;101596.41;5584028;23;20022;31
2021/06/11 23:13:34;;;;;;;10.38;5.53;;;;;;;21.95;66.61;101602.25;4899550;29;20065;-77